Time;durP1;ratioP1;P1;durP2;ratioP2;P2;SDS_P1;SDS_P2;PMS_P1;PMS_P2;Temp;Humidity;BMP_temperature;BMP_pressure;BME280_temperature;BME280_humidity;BME280_pressure;Samples;Min_cycle;Max_cycle;Signal;HPM_P1;HPM_P2
2022/07/17 00:01:13;;;;;;;4.33;2.70;;;;;;;12.30;83.35;101096.50;5092291;28;20407;-67
2022/07/17 00:03:39;;;;;;;4.80;2.10;;;;;;;12.29;83.30;101106.34;5074113;28;20040;-68
2022/07/17 00:06:05;;;;;;;2.70;2.43;;;;;;;12.29;83.42;101105.50;5092028;28;20042;-70
2022/07/17 00:08:32;;;;;;;2.73;2.37;;;;;;;12.28;83.51;101114.53;5092414;28;20035;-68
2022/07/17 00:10:58;;;;;;;4.60;2.60;;;;;;;12.26;83.97;101113.84;5092029;28;20518;-68
2022/07/17 00:13:24;;;;;;;4.83;2.73;;;;;;;12.12;84.46;101103.81;5092068;28;20069;-68
2022/07/17 00:15:50;;;;;;;3.20;2.30;;;;;;;12.17;84.18;101112.19;5092233;28;20032;-68
2022/07/17 00:18:16;;;;;;;3.43;2.60;;;;;;;12.13;83.94;101108.16;5092146;28;20043;-68
2022/07/17 00:20:43;;;;;;;6.20;2.90;;;;;;;12.09;84.11;101104.97;5073869;28;20475;-68
2022/07/17 00:23:08;;;;;;;6.80;3.07;;;;;;;12.12;83.81;101111.81;5092243;28;20325;-69
2022/07/17 00:25:34;;;;;;;6.63;3.57;;;;;;;12.13;84.42;101117.00;5091988;28;20054;-68
2022/07/17 00:27:59;;;;;;;3.37;2.53;;;;;;;12.12;84.70;101119.81;5091883;28;20131;-71
2022/07/17 00:30:25;;;;;;;5.93;3.63;;;;;;;12.07;84.45;101112.31;5092108;28;20165;-67
2022/07/17 00:32:50;;;;;;;6.13;3.00;;;;;;;12.06;84.83;101111.47;5092148;28;20131;-66
2022/07/17 00:35:16;;;;;;;5.23;2.87;;;;;;;12.01;85.28;101105.78;5091897;28;20126;-69
2022/07/17 00:37:45;;;;;;;3.87;2.47;;;;;;;12.06;85.33;101111.47;5092105;28;20049;-67
2022/07/17 00:40:13;;;;;;;4.20;2.90;;;;;;;12.03;85.28;101111.81;5091909;28;20038;-67
2022/07/17 00:42:41;;;;;;;3.40;2.05;;;;;;;11.92;85.85;101089.94;5091994;28;20046;-67
2022/07/17 00:45:11;;;;;;;4.43;2.53;;;;;;;12.00;85.43;101109.47;5092024;28;20036;-67
2022/07/17 00:47:58;;;;;;;4.83;3.33;;;;;;;12.04;85.76;101118.81;5091697;28;20130;-70
2022/07/17 00:50:27;;;;;;;3.40;2.50;;;;;;;11.99;86.29;101114.97;5078077;28;20418;-70
2022/07/17 00:52:53;;;;;;;4.60;2.88;;;;;;;11.85;86.23;101091.56;5096064;28;20500;-68
2022/07/17 00:55:19;;;;;;;3.27;2.70;;;;;;;11.97;85.59;101115.13;5095904;28;20075;-67
2022/07/17 00:57:47;;;;;;;3.43;2.40;;;;;;;11.92;86.05;101106.78;5095833;28;20494;-69
2022/07/17 01:00:14;;;;;;;9.63;2.57;;;;;;;11.93;85.42;101110.28;5095731;28;20036;-68
2022/07/17 01:02:39;;;;;;;4.03;2.87;;;;;;;11.93;85.58;101110.28;5095861;28;20254;-66
2022/07/17 01:05:05;;;;;;;6.13;2.77;;;;;;;11.92;84.75;101101.44;5095740;28;20451;-69
2022/07/17 01:07:32;;;;;;;4.50;2.33;;;;;;;11.94;84.67;101112.78;5095588;28;20032;-68
2022/07/17 01:09:58;;;;;;;3.97;2.00;;;;;;;11.94;84.48;101102.13;5095582;28;20111;-67
2022/07/17 01:12:24;;;;;;;6.33;2.77;;;;;;;11.98;84.48;101111.47;5095415;28;20123;-67
2022/07/17 01:14:51;;;;;;;3.37;2.53;;;;;;;11.98;84.47;101108.78;5111020;28;20489;-66
2022/07/17 01:17:17;;;;;;;2.70;1.80;;;;;;;11.98;84.02;101108.78;5095490;28;20071;-66
2022/07/17 01:19:43;;;;;;;4.67;2.60;;;;;;;11.94;84.49;101104.78;5108058;28;20036;-66
2022/07/17 01:22:08;;;;;;;4.10;2.00;;;;;;;11.94;84.15;101104.78;5120408;28;20020;-68
2022/07/17 01:24:34;;;;;;;2.50;2.00;;;;;;;11.97;83.74;101112.47;5120430;28;20043;-68
2022/07/17 01:27:02;;;;;;;2.50;2.13;;;;;;;11.94;84.50;101104.78;5101671;28;20064;-65
2022/07/17 01:29:30;;;;;;;3.57;2.10;;;;;;;11.93;84.68;101105.78;5107453;28;20086;-68
2022/07/17 01:31:56;;;;;;;2.80;2.20;;;;;;;11.94;85.10;101110.13;5107037;28;20051;-67
2022/07/17 01:34:22;;;;;;;4.20;2.20;;;;;;;11.90;84.63;101095.44;5101189;28;20047;-68
2022/07/17 01:36:47;;;;;;;3.77;2.20;;;;;;;11.95;84.65;101114.47;5096638;28;20040;-68
2022/07/17 01:39:13;;;;;;;4.53;2.57;;;;;;;11.95;84.33;101114.47;5095496;28;20119;-69
2022/07/17 01:41:39;;;;;;;3.13;1.97;;;;;;;11.95;84.36;101118.97;5094914;28;20490;-68
2022/07/17 01:44:06;;;;;;;4.97;2.50;;;;;;;11.83;84.66;101094.41;5094738;28;20040;-68
2022/07/17 01:46:32;;;;;;;3.97;2.30;;;;;;;11.91;84.22;101099.78;5095185;28;20487;-66
2022/07/17 01:48:57;;;;;;;4.43;2.30;;;;;;;11.93;84.42;101100.44;5094817;28;20040;-69
2022/07/17 01:51:23;;;;;;;3.00;2.13;;;;;;;11.98;83.87;101103.47;5095317;28;20498;-67
2022/07/17 01:53:48;;;;;;;4.10;2.13;;;;;;;11.94;84.15;101101.28;5096363;28;20043;-68
2022/07/17 01:56:13;;;;;;;3.67;2.20;;;;;;;11.99;84.00;101105.13;5095897;28;20115;-67
2022/07/17 01:58:39;;;;;;;4.73;2.30;;;;;;;11.98;84.21;101092.78;5095534;28;20028;-67
2022/07/17 02:01:04;;;;;;;4.97;3.20;;;;;;;12.03;84.36;101092.28;5094406;28;20483;-67
2022/07/17 02:03:30;;;;;;;9.17;2.43;;;;;;;12.03;84.44;101093.13;5096260;28;20122;-69
2022/07/17 02:05:55;;;;;;;3.93;1.90;;;;;;;12.08;84.67;101092.63;5094368;28;20449;-67
2022/07/17 02:08:21;;;;;;;4.70;1.97;;;;;;;12.20;84.32;101101.16;5094437;28;20058;-68
2022/07/17 02:10:47;;;;;;;4.03;2.00;;;;;;;12.24;83.47;101091.81;5094547;28;20031;-69
2022/07/17 02:13:12;;;;;;;6.00;2.87;;;;;;;12.26;83.51;101079.13;5094158;28;20047;-68
2022/07/17 02:15:38;;;;;;;5.27;2.30;;;;;;;12.44;82.79;101097.69;5094420;28;20028;-68
2022/07/17 02:18:04;;;;;;;6.40;2.20;;;;;;;12.52;82.71;101095.84;5094599;28;20024;-67
2022/07/17 02:20:29;;;;;;;3.10;2.13;;;;;;;12.66;82.65;101088.97;5094333;28;20142;-68
2022/07/17 02:22:55;;;;;;;3.60;2.30;;;;;;;12.74;82.63;101089.00;5094199;28;20086;-67
2022/07/17 02:25:20;;;;;;;3.67;2.23;;;;;;;12.81;81.99;101084.63;5094339;28;20070;-68
2022/07/17 02:27:46;;;;;;;3.87;2.10;;;;;;;12.97;81.72;101091.78;5094052;28;20090;-65
2022/07/17 02:30:37;;;;;;;4.73;1.80;;;;;;;13.13;81.76;101088.25;5094072;28;20556;-66
2022/07/17 02:33:03;;;;;;;5.53;2.20;;;;;;;13.31;81.52;101100.44;5094135;28;20048;-68
2022/07/17 02:35:29;;;;;;;3.13;2.10;;;;;;;13.42;79.92;101103.75;5093973;28;20036;-67
2022/07/17 02:37:54;;;;;;;2.53;1.73;;;;;;;13.47;79.42;101098.69;5093857;28;20051;-68
2022/07/17 02:40:20;;;;;;;3.27;2.03;;;;;;;13.59;79.44;101102.69;5093911;28;20070;-68
2022/07/17 02:42:45;;;;;;;4.57;1.90;;;;;;;13.76;79.19;101106.94;5075903;28;20509;-68
2022/07/17 02:45:11;;;;;;;2.23;2.03;;;;;;;13.89;78.10;101107.22;5093957;28;20035;-68
2022/07/17 02:47:36;;;;;;;3.33;2.00;;;;;;;14.07;77.80;101111.44;5093691;28;20047;-68
2022/07/17 02:50:07;;;;;;;3.67;2.20;;;;;;;14.20;76.94;101098.31;5093965;28;20069;-69
2022/07/17 02:52:33;;;;;;;2.70;2.17;;;;;;;14.27;76.12;101107.31;5093961;28;20035;-68
2022/07/17 02:54:58;;;;;;;2.27;1.90;;;;;;;14.31;75.63;101100.56;5093687;28;20430;-65
2022/07/17 02:57:23;;;;;;;2.33;1.87;;;;;;;14.21;75.44;101081.25;5075653;28;20028;-66
2022/07/17 02:59:49;;;;;;;2.20;1.90;;;;;;;14.32;75.51;101090.69;5093593;28;20063;-68
2022/07/17 03:02:15;;;;;;;3.33;1.90;;;;;;;14.53;75.04;101102.44;5093264;28;20039;-68
2022/07/17 03:04:40;;;;;;;2.33;1.90;;;;;;;14.89;73.87;101096.44;5075319;28;20031;-68
2022/07/17 03:07:06;;;;;;;4.07;2.00;;;;;;;14.78;74.04;101108.44;5093228;28;20036;-68
2022/07/17 03:09:31;;;;;;;1.60;1.40;;;;;;;14.61;74.51;101096.19;5093220;28;20139;-67
2022/07/17 03:11:57;;;;;;;2.30;1.73;;;;;;;14.39;74.97;101081.75;5092215;28;20031;-68
2022/07/17 03:14:22;;;;;;;2.40;1.77;;;;;;;14.32;75.16;101102.25;5093426;28;20039;-66
2022/07/17 03:16:48;;;;;;;3.63;1.77;;;;;;;14.15;75.96;101095.31;5093371;28;20491;-67
2022/07/17 03:19:14;;;;;;;2.80;2.00;;;;;;;14.11;75.97;101104.72;5093378;28;20040;-68
2022/07/17 03:21:39;;;;;;;16.07;4.63;;;;;;;14.08;76.46;101105.09;5093079;28;20036;-70
2022/07/17 03:24:05;;;;;;;6.07;2.53;;;;;;;14.07;76.70;101109.59;5074910;28;20082;-65
2022/07/17 03:26:30;;;;;;;6.07;3.13;;;;;;;14.19;76.67;101108.22;5092963;28;20044;-68
2022/07/17 03:28:58;;;;;;;2.60;2.20;;;;;;;14.35;75.17;101106.41;5093243;28;20056;-68
2022/07/17 03:31:23;;;;;;;2.90;1.80;;;;;;;14.52;73.97;101100.78;5092830;28;20582;-67
2022/07/17 03:33:48;;;;;;;2.90;2.17;;;;;;;14.98;73.96;101107.91;5092879;28;20119;-69
2022/07/17 03:36:14;;;;;;;3.87;2.80;;;;;;;17.40;66.01;101107.22;5092593;28;20820;-66
2022/07/17 03:38:40;;;;;;;3.10;2.10;;;;;;;19.28;58.73;101084.72;5092545;28;20038;-67
2022/07/17 03:41:05;;;;;;;2.43;1.97;;;;;;;19.41;57.39;101107.13;5092760;28;20064;-67
2022/07/17 03:43:31;;;;;;;4.17;2.07;;;;;;;18.49;58.70;101107.16;5092733;28;20042;-66
2022/07/17 03:45:56;;;;;;;2.70;1.77;;;;;;;17.49;62.32;101116.78;5092459;28;20571;-69
2022/07/17 03:48:22;;;;;;;3.47;2.03;;;;;;;16.85;64.51;101114.31;5092784;28;20123;-68
2022/07/17 03:50:47;;;;;;;3.50;2.43;;;;;;;16.52;66.28;101118.53;5092804;28;20081;-69
2022/07/17 03:53:12;;;;;;;5.47;2.43;;;;;;;16.61;65.71;101112.00;5092484;28;20040;-67
2022/07/17 03:55:38;;;;;;;3.60;2.70;;;;;;;16.97;64.61;101111.91;5092860;28;20058;-68
2022/07/17 03:58:03;;;;;;;2.83;2.00;;;;;;;17.37;63.52;101113.00;5108324;28;20086;-68
2022/07/17 04:00:29;;;;;;;4.77;2.77;;;;;;;17.59;62.36;101114.56;5092374;28;20028;-69
2022/07/17 04:02:54;;;;;;;4.17;2.60;;;;;;;17.85;62.70;101113.03;5092355;28;20059;-68
2022/07/17 04:05:20;;;;;;;5.70;3.03;;;;;;;18.42;60.73;101109.03;5092373;28;20040;-66
2022/07/17 04:07:46;;;;;;;5.43;3.63;;;;;;;19.81;55.93;101112.41;5092109;28;20036;-67
2022/07/17 04:10:13;;;;;;;3.70;2.93;;;;;;;21.07;52.91;101108.84;5092461;28;20126;-67
2022/07/17 04:12:40;;;;;;;3.83;3.13;;;;;;;22.19;47.87;101102.13;5092510;28;20059;-69
2022/07/17 04:15:07;;;;;;;6.57;2.97;;;;;;;22.99;45.15;101099.84;5092243;28;20040;-69
2022/07/17 04:17:32;;;;;;;2.92;2.65;;;;;;;23.66;43.70;101104.84;5092382;28;20044;-68
2022/07/17 04:19:58;;;;;;;8.35;3.30;;;;;;;24.09;42.50;101104.34;5092136;28;20066;-66
2022/07/17 04:22:24;;;;;;;6.68;3.20;;;;;;;24.35;41.55;101103.78;5091854;28;20411;-66
2022/07/17 04:24:51;;;;;;;5.05;2.65;;;;;;;24.58;41.38;101108.25;5091696;28;20486;-68
2022/07/17 04:27:17;;;;;;;2.97;2.65;;;;;;;24.75;40.62;101108.22;5091928;28;20495;-68
2022/07/17 04:29:43;;;;;;;3.17;2.45;;;;;;;24.70;40.26;101108.16;5057390;28;20065;-66
2022/07/17 04:32:09;;;;;;;3.25;2.80;;;;;;;23.89;42.54;101098.50;5077003;28;20048;-67
2022/07/17 04:34:35;;;;;;;2.55;2.28;;;;;;;23.85;42.32;101098.16;5095209;28;20032;-68
2022/07/17 04:37:02;;;;;;;3.85;3.08;;;;;;;24.19;41.82;101099.06;5097007;28;20071;-69
2022/07/17 04:39:29;;;;;;;5.90;3.05;;;;;;;24.35;41.04;101089.34;5096928;28;20093;-68
2022/07/17 04:41:55;;;;;;;5.68;2.70;;;;;;;24.40;41.19;101095.69;5092429;28;20046;-68
2022/07/17 04:44:20;;;;;;;3.95;3.13;;;;;;;24.71;41.23;101088.84;5074227;28;20028;-68
2022/07/17 04:46:46;;;;;;;6.90;2.90;;;;;;;24.80;41.01;101094.69;5092107;28;20131;-67
2022/07/17 04:49:12;;;;;;;4.60;3.17;;;;;;;24.91;40.20;101096.53;5091906;28;20075;-68
2022/07/17 04:51:37;;;;;;;6.43;2.90;;;;;;;24.54;40.37;101084.47;5091685;28;20047;-68
2022/07/17 04:54:03;;;;;;;6.72;3.85;;;;;;;24.58;40.93;101101.97;5091997;28;20486;-68
2022/07/17 04:56:29;;;;;;;4.10;2.72;;;;;;;24.60;40.91;101094.38;5091883;28;20044;-66
2022/07/17 04:58:55;;;;;;;4.28;2.17;;;;;;;24.81;40.26;101095.50;5091846;28;20031;-67
2022/07/17 05:01:20;;;;;;;4.80;1.90;;;;;;;24.82;40.11;101098.00;5092006;28;20039;-70
2022/07/17 05:03:46;;;;;;;5.30;2.75;;;;;;;24.66;40.86;101098.84;5091720;28;20078;-67
2022/07/17 05:06:11;;;;;;;4.43;2.65;;;;;;;24.63;41.62;101093.88;5091568;28;20146;-69
2022/07/17 05:08:37;;;;;;;5.45;2.60;;;;;;;24.86;40.60;101099.13;5091791;28;20050;-67
2022/07/17 05:11:02;;;;;;;3.80;3.47;;;;;;;24.96;40.51;101096.59;5091703;28;20426;-66
2022/07/17 05:13:28;;;;;;;6.50;2.47;;;;;;;25.02;40.36;101097.50;5091577;28;20065;-69
2022/07/17 05:15:53;;;;;;;6.20;2.60;;;;;;;24.60;40.60;101102.56;5091481;28;20036;-67
2022/07/17 05:18:19;;;;;;;6.25;2.63;;;;;;;24.16;42.32;101107.72;5091641;28;20127;-69
2022/07/17 05:20:44;;;;;;;3.03;2.35;;;;;;;23.92;43.01;101104.28;5091294;28;20036;-68
2022/07/17 05:23:10;;;;;;;5.75;2.60;;;;;;;23.40;44.32;101098.00;5091317;28;20032;-68
2022/07/17 05:25:35;;;;;;;4.20;2.13;;;;;;;22.65;46.22;101095.19;5091494;28;20040;-68
2022/07/17 05:28:02;;;;;;;3.28;2.20;;;;;;;21.18;49.31;101100.84;5091324;28;20457;-68
2022/07/17 05:30:28;;;;;;;4.82;1.98;;;;;;;19.87;53.42;101097.22;5091395;28;20071;-68
2022/07/17 05:32:53;;;;;;;3.95;2.00;;;;;;;18.98;56.21;101092.47;5091420;28;20078;-67
2022/07/17 05:35:19;;;;;;;4.80;2.22;;;;;;;18.39;59.45;101095.97;5091698;28;20044;-68
2022/07/17 05:37:44;;;;;;;5.30;2.67;;;;;;;18.05;61.39;101089.69;5095121;28;20044;-69
2022/07/17 05:40:10;;;;;;;6.45;2.60;;;;;;;17.92;61.89;101100.41;5094976;28;20533;-67
2022/07/17 05:42:35;;;;;;;2.88;1.80;;;;;;;17.76;62.65;101100.78;5095158;28;20051;-68
2022/07/17 05:45:01;;;;;;;4.80;1.90;;;;;;;17.62;63.44;101095.28;5094567;28;20124;-67
2022/07/17 05:47:27;;;;;;;5.45;1.83;;;;;;;17.51;62.03;101092.34;5094530;28;20093;-68
2022/07/17 05:49:52;;;;;;;2.03;1.38;;;;;;;17.48;63.42;101098.13;5094628;28;20024;-68
2022/07/17 05:52:17;;;;;;;3.70;1.73;;;;;;;17.57;62.93;101087.00;5094691;28;20040;-68
2022/07/17 05:54:43;;;;;;;3.88;2.25;;;;;;;17.67;62.09;101092.06;5094699;28;20038;-68
2022/07/17 05:57:09;;;;;;;3.70;2.40;;;;;;;17.64;62.71;101093.25;5094712;28;20483;-68
2022/07/17 05:59:34;;;;;;;3.80;2.45;;;;;;;17.62;62.73;101100.69;5094445;28;20032;-66
2022/07/17 06:02:00;;;;;;;4.78;2.00;;;;;;;17.62;61.59;101099.84;5076442;28;20067;-68
2022/07/17 06:04:25;;;;;;;3.05;1.70;;;;;;;17.50;62.98;101086.13;5094259;28;20047;-66
2022/07/17 06:06:51;;;;;;;2.03;1.60;;;;;;;17.55;62.26;101089.06;5094410;28;20067;-69
2022/07/17 06:09:17;;;;;;;2.05;1.55;;;;;;;17.59;61.50;101092.19;5076403;28;20036;-69
2022/07/17 06:11:42;;;;;;;1.95;1.38;;;;;;;17.67;61.57;101096.59;5094248;28;20467;-68
2022/07/17 06:14:08;;;;;;;3.05;1.80;;;;;;;17.67;60.78;101089.38;5094173;28;20051;-67
2022/07/17 06:16:33;;;;;;;3.15;1.35;;;;;;;17.54;60.90;101075.78;5094217;28;20525;-67
2022/07/17 06:18:59;;;;;;;3.50;1.88;;;;;;;17.61;60.42;101095.50;5094022;28;20059;-67
2022/07/17 06:21:24;;;;;;;2.58;1.63;;;;;;;17.58;59.88;101095.91;5094463;28;20043;-69
2022/07/17 06:23:50;;;;;;;2.75;1.92;;;;;;;17.68;61.11;101088.31;5094356;28;20399;-67
2022/07/17 06:26:15;;;;;;;3.40;1.48;;;;;;;17.76;59.79;101095.41;5076074;28;20122;-70
2022/07/17 06:28:41;;;;;;;1.92;1.80;;;;;;;17.63;59.98;101096.13;5094041;28;20052;-67
2022/07/17 06:31:06;;;;;;;3.60;1.33;;;;;;;17.40;61.16;101090.22;5094589;28;20589;-66
2022/07/17 06:33:32;;;;;;;3.63;1.48;;;;;;;17.28;62.72;101098.03;5096018;28;20070;-67
2022/07/17 06:35:57;;;;;;;3.25;1.75;;;;;;;17.37;63.19;101091.47;5093850;28;20153;-68
2022/07/17 06:38:24;;;;;;;1.70;1.30;;;;;;;17.49;61.85;101095.25;5094087;28;20241;-67
2022/07/17 06:40:49;;;;;;;2.75;1.52;;;;;;;17.39;61.35;101094.78;5094003;28;20074;-68
2022/07/17 06:43:15;;;;;;;4.60;1.38;;;;;;;17.27;61.23;101094.50;5094206;28;20514;-67
2022/07/17 06:45:41;;;;;;;1.60;1.50;;;;;;;17.33;61.21;101090.19;5093696;28;20506;-67
2022/07/17 06:48:06;;;;;;;4.05;2.17;;;;;;;17.30;61.22;101093.28;5093381;28;20032;-66
2022/07/17 06:50:32;;;;;;;2.30;1.65;;;;;;;17.25;61.64;101098.41;5095279;28;20035;-68
2022/07/17 06:52:58;;;;;;;3.65;1.45;;;;;;;17.02;62.29;101077.16;5095288;28;20077;-68
2022/07/17 06:55:23;;;;;;;1.83;1.15;;;;;;;17.06;61.62;101093.72;5095040;28;20036;-67
2022/07/17 06:57:50;;;;;;;2.08;1.38;;;;;;;17.00;61.24;101101.56;5094069;28;20471;-69
2022/07/17 07:00:18;;;;;;;1.75;1.20;;;;;;;16.93;61.37;101105.25;5093382;28;20044;-67
2022/07/17 07:02:44;;;;;;;4.13;1.15;;;;;;;17.09;61.72;101102.28;5093187;28;20186;-68
2022/07/17 07:05:10;;;;;;;3.15;1.85;;;;;;;17.25;60.43;101095.72;5093554;28;20043;-68
2022/07/17 07:07:35;;;;;;;1.70;1.55;;;;;;;17.37;59.98;101096.84;5093318;28;20040;-68
2022/07/17 07:10:01;;;;;;;3.78;1.70;;;;;;;17.46;58.01;101092.97;5093459;28;20413;-67
2022/07/17 07:12:29;;;;;;;2.90;1.40;;;;;;;17.72;57.78;101100.34;5093112;28;20039;-68
2022/07/17 07:14:54;;;;;;;5.07;1.73;;;;;;;17.95;56.26;101105.41;5093235;28;20073;-68
2022/07/17 07:17:20;;;;;;;2.22;1.50;;;;;;;18.21;56.82;101089.31;5093013;28;20433;-69
2022/07/17 07:19:45;;;;;;;3.00;1.70;;;;;;;18.49;55.84;101090.97;5095232;28;20032;-67
2022/07/17 07:22:11;;;;;;;2.45;1.33;;;;;;;18.75;54.80;101090.19;5109347;28;20039;-69
2022/07/17 07:24:36;;;;;;;2.42;1.85;;;;;;;18.82;55.19;101085.66;5112877;28;20036;-69
2022/07/17 07:27:04;;;;;;;4.38;1.30;;;;;;;18.81;54.62;101084.81;5112608;28;20060;-70
2022/07/17 07:29:33;;;;;;;2.80;1.50;;;;;;;18.72;55.35;101091.44;5101670;28;20051;-69
2022/07/17 07:31:59;;;;;;;2.50;1.40;;;;;;;18.72;55.87;101087.91;5093958;28;20044;-68
2022/07/17 07:34:26;;;;;;;2.35;1.50;;;;;;;18.62;55.04;101093.75;5096268;28;20051;-67
2022/07/17 07:36:51;;;;;;;2.30;1.55;;;;;;;18.46;55.97;101096.78;5092970;28;20082;-68
2022/07/17 07:39:21;;;;;;;3.72;2.25;;;;;;;18.46;56.19;101086.00;5092528;28;20422;-66
2022/07/17 07:41:46;;;;;;;1.63;1.35;;;;;;;18.52;56.12;101056.38;5092941;28;20038;-69
2022/07/17 07:44:12;;;;;;;3.25;1.75;;;;;;;18.74;55.47;101083.97;5092251;28;20058;-69
2022/07/17 07:46:38;;;;;;;2.15;1.30;;;;;;;18.75;54.06;101082.94;5093195;28;20032;-68
2022/07/17 07:49:03;;;;;;;4.57;1.73;;;;;;;18.58;53.85;101087.06;5074667;28;20027;-69
2022/07/17 07:51:29;;;;;;;2.35;1.30;;;;;;;18.35;53.89;101084.75;5092276;28;20456;-68
2022/07/17 07:53:55;;;;;;;1.95;1.40;;;;;;;18.31;55.07;101091.59;5075770;28;20036;-69
2022/07/17 07:56:20;;;;;;;5.38;1.70;;;;;;;18.34;54.33;101087.66;5093637;28;20482;-67
2022/07/17 07:58:45;;;;;;;1.73;1.23;;;;;;;18.35;55.47;101078.53;5075338;28;20052;-64
2022/07/17 08:01:11;;;;;;;3.58;1.20;;;;;;;18.39;55.42;101077.09;5093046;28;20036;-69
2022/07/17 08:03:36;;;;;;;2.83;1.25;;;;;;;18.42;54.72;101082.06;5074474;28;20102;-67
2022/07/17 08:06:02;;;;;;;1.55;0.93;;;;;;;18.32;55.22;101066.31;5092698;28;20050;-66
2022/07/17 08:08:27;;;;;;;4.38;1.50;;;;;;;18.46;54.44;101075.22;5092878;28;20475;-69
2022/07/17 08:10:53;;;;;;;2.40;1.40;;;;;;;18.50;54.08;101076.47;5092265;28;20487;-69
2022/07/17 08:13:19;;;;;;;4.20;1.98;;;;;;;18.43;54.31;101086.41;5092196;28;20043;-67
2022/07/17 08:15:44;;;;;;;3.92;1.13;;;;;;;18.44;52.98;101082.69;5091937;28;20127;-70
2022/07/17 08:18:10;;;;;;;3.88;1.40;;;;;;;18.58;53.62;101092.47;5092170;28;20115;-67
2022/07/17 08:20:36;;;;;;;1.60;1.17;;;;;;;18.53;52.70;101094.97;5092077;28;20050;-69
2022/07/17 08:23:01;;;;;;;2.35;1.27;;;;;;;18.39;52.99;101079.78;5092100;28;20036;-69
2022/07/17 08:25:27;;;;;;;1.45;1.13;;;;;;;18.50;53.39;101077.31;5092284;28;20081;-70
2022/07/17 08:27:52;;;;;;;2.10;1.40;;;;;;;18.71;53.02;101080.88;5092235;28;20145;-70
2022/07/17 08:30:18;;;;;;;1.75;1.33;;;;;;;18.69;50.86;101078.38;5092027;28;20055;-69
2022/07/17 08:32:44;;;;;;;2.22;1.70;;;;;;;18.79;49.48;101084.19;5092246;28;20043;-69
2022/07/17 08:35:10;;;;;;;2.47;1.13;;;;;;;18.92;50.43;101077.13;5092189;28;20035;-71
2022/07/17 08:37:49;;;;;;;1.98;1.40;;;;;;;19.02;49.46;101074.81;5092017;28;20047;-69
2022/07/17 08:40:43;;;;;;;1.75;1.10;;;;;;;19.23;49.43;101071.88;5092114;28;20172;-70
2022/07/17 08:43:09;;;;;;;2.03;1.50;;;;;;;19.28;47.38;101072.06;5107759;28;20048;-68
2022/07/17 08:45:37;;;;;;;2.33;2.13;;;;;;;19.26;47.56;101067.91;5092611;28;20135;-68
2022/07/17 08:48:03;;;;;;;2.72;1.30;;;;;;;19.18;47.56;101058.16;5092507;28;20032;-71
2022/07/17 08:50:35;;;;;;;2.90;1.35;;;;;;;19.40;47.64;101073.06;5092173;28;20423;-68
2022/07/17 08:53:01;;;;;;;1.48;1.20;;;;;;;19.48;47.83;101074.69;5073827;28;20040;-70
2022/07/17 08:55:28;;;;;;;4.53;2.20;;;;;;;19.59;46.30;101070.53;5092155;28;20032;-68
2022/07/17 08:57:53;;;;;;;2.63;1.45;;;;;;;19.53;47.10;101065.94;5092114;28;20038;-70
2022/07/17 09:00:22;;;;;;;1.17;1.00;;;;;;;19.63;46.98;101066.34;5091749;28;20028;-67
2022/07/17 09:02:54;;;;;;;1.67;1.08;;;;;;;19.70;47.36;101083.38;5091723;28;20127;-68
2022/07/17 09:05:25;;;;;;;2.22;1.30;;;;;;;19.66;47.55;101068.59;5091915;28;20036;-68
2022/07/17 09:07:50;;;;;;;2.95;1.48;;;;;;;19.76;47.30;101077.09;5091646;28;20036;-69
2022/07/17 09:10:16;;;;;;;1.98;1.17;;;;;;;19.75;47.42;101065.47;5092286;28;20036;-68
2022/07/17 09:12:42;;;;;;;1.63;1.10;;;;;;;19.76;47.92;101069.00;5095662;28;20036;-67
2022/07/17 09:15:17;;;;;;;4.50;1.73;;;;;;;19.72;47.36;101065.06;5095745;28;20032;-70
2022/07/17 09:17:55;;;;;;;2.03;1.35;;;;;;;19.64;47.97;101058.03;5095315;28;20498;-69
2022/07/17 09:20:21;;;;;;;2.05;1.40;;;;;;;19.45;48.27;101062.44;5095344;28;20035;-71
2022/07/17 09:23:01;;;;;;;1.65;1.30;;;;;;;19.15;47.45;101059.44;5095505;28;20036;-69
2022/07/17 09:25:39;;;;;;;1.67;0.80;;;;;;;19.17;47.62;101056.50;5095816;28;20111;-70
2022/07/17 09:28:06;;;;;;;;;;;;;;;19.41;47.75;101068.50;5096033;28;20066;-74
2022/07/17 09:30:35;;;;;;;2.15;1.25;;;;;;;19.56;47.66;101060.16;5095174;28;19996;-69
2022/07/17 09:33:01;;;;;;;3.03;1.00;;;;;;;19.70;48.23;101059.06;5095088;28;20035;-69
2022/07/17 09:35:27;;;;;;;1.27;0.77;;;;;;;19.61;47.20;101049.50;5095200;28;20050;-71
2022/07/17 09:37:53;;;;;;;2.17;0.90;;;;;;;19.69;47.38;101049.28;5077072;28;20085;-67
2022/07/17 09:43:07;;;;;;;1.95;0.98;;;;;;;20.01;45.78;101042.88;5094788;28;20052;-69
2022/07/17 09:45:33;;;;;;;1.90;0.82;;;;;;;20.10;45.53;101036.16;5076873;28;20036;-69
2022/07/17 09:48:00;;;;;;;1.65;0.85;;;;;;;20.24;45.46;101054.97;5094865;28;20055;-72
2022/07/17 09:50:27;;;;;;;2.67;1.65;;;;;;;20.09;45.66;101053.41;5094988;28;20051;-71
2022/07/17 09:52:56;;;;;;;3.10;1.10;;;;;;;19.96;46.08;101050.81;5095033;28;20125;-72
2022/07/17 09:55:30;;;;;;;1.75;0.65;;;;;;;19.72;47.03;101057.78;5094729;28;20514;-69
2022/07/17 09:57:58;;;;;;;3.08;0.93;;;;;;;19.60;48.91;101080.28;5094904;28;20036;-69
2022/07/17 10:00:24;;;;;;;4.60;2.13;;;;;;;19.18;51.65;101101.38;5094776;28;20110;-69
2022/07/17 10:02:50;;;;;;;5.57;1.35;;;;;;;18.82;52.65;101091.88;5094938;28;20028;-71
2022/07/17 10:05:16;;;;;;;8.85;1.50;;;;;;;18.42;54.23;101092.84;5095996;28;20087;-68
2022/07/17 10:07:45;;;;;;;1.30;1.00;;;;;;;18.22;55.27;101101.75;5094485;28;20044;-72
2022/07/17 10:10:11;;;;;;;5.03;2.03;;;;;;;18.03;56.04;101099.84;5094327;28;20039;-69
2022/07/17 10:12:39;;;;;;;6.20;2.33;;;;;;;17.90;55.69;101091.69;5094543;28;20028;-68
2022/07/17 10:15:05;;;;;;;1.52;1.10;;;;;;;18.09;56.29;101107.09;5076551;28;20032;-68
2022/07/17 10:17:31;;;;;;;4.95;1.45;;;;;;;18.22;55.29;101099.06;5094535;28;20444;-69
2022/07/17 10:19:58;;;;;;;2.30;1.25;;;;;;;18.38;55.04;101105.09;5076233;28;20032;-67
2022/07/17 10:22:24;;;;;;;2.88;1.10;;;;;;;18.46;55.05;101108.41;5093770;28;20082;-71
2022/07/17 10:24:52;;;;;;;4.03;1.10;;;;;;;18.50;54.84;101104.28;5093945;28;20078;-70
2022/07/17 10:27:31;;;;;;;3.42;1.05;;;;;;;18.39;55.28;101098.66;5093860;28;20101;-70
2022/07/17 10:29:59;;;;;;;3.08;1.75;;;;;;;18.20;56.54;101119.97;5094291;28;20040;-68
2022/07/17 10:32:25;;;;;;;;;;;;;;;18.04;56.72;101112.28;5094521;28;20044;-68
2022/07/17 10:34:58;;;;;;;3.13;1.63;;;;;;;17.80;58.63;101112.81;5093981;28;19916;-67
2022/07/17 10:37:43;;;;;;;4.55;1.25;;;;;;;17.49;61.64;101113.25;5093853;28;20503;-68
2022/07/17 10:40:14;;;;;;;1.30;1.20;;;;;;;17.14;65.18;101123.22;5094120;28;20044;-70
2022/07/17 10:43:00;;;;;;;1.35;0.80;;;;;;;16.97;67.86;101128.03;5093644;28;20036;-68
2022/07/17 10:45:34;;;;;;;1.77;1.05;;;;;;;16.80;68.85;101122.13;5093625;28;20047;-68
2022/07/17 10:48:03;;;;;;;1.90;1.48;;;;;;;16.86;71.14;101125.91;5093196;28;20079;-66
2022/07/17 10:50:30;;;;;;;1.90;1.10;;;;;;;17.09;68.85;101120.28;5093607;28;20054;-68
2022/07/17 10:53:10;;;;;;;2.90;1.10;;;;;;;17.15;65.37;101124.88;5093487;28;20368;-69
2022/07/17 10:55:37;;;;;;;1.65;1.15;;;;;;;17.11;65.53;101129.00;5093664;28;20769;-68
2022/07/17 10:58:13;;;;;;;0.90;0.82;;;;;;;17.14;66.29;101125.91;5075361;28;20040;-67
2022/07/17 11:00:39;;;;;;;1.83;1.70;;;;;;;17.16;66.61;101121.97;5093571;28;20498;-68
2022/07/17 11:03:10;;;;;;;1.52;1.10;;;;;;;17.38;65.79;101120.06;5093678;28;20034;-67
2022/07/17 11:05:35;;;;;;;1.80;1.60;;;;;;;17.74;65.84;101117.16;5075447;28;20032;-68
2022/07/17 11:08:03;;;;;;;1.77;1.50;;;;;;;18.21;64.72;101116.28;5093487;28;20040;-66
2022/07/17 11:10:29;;;;;;;1.60;1.17;;;;;;;18.60;62.51;101125.44;5094398;28;20032;-67
2022/07/17 11:13:06;;;;;;;1.45;1.13;;;;;;;18.51;60.52;101095.16;5094679;28;20514;-67
2022/07/17 11:15:40;;;;;;;1.17;0.70;;;;;;;18.64;59.79;101110.53;5096096;28;20079;-69
2022/07/17 11:18:32;;;;;;;1.73;1.38;;;;;;;18.57;60.91;101115.09;5094270;28;20028;-68
2022/07/17 11:21:01;;;;;;;1.20;1.10;;;;;;;18.68;59.75;101109.09;5089514;28;20044;-69
2022/07/17 11:23:29;;;;;;;2.22;1.00;;;;;;;18.72;60.78;101099.53;5093542;28;20134;-69
2022/07/17 11:25:59;;;;;;;2.45;1.40;;;;;;;18.63;61.05;101113.44;5092932;28;20510;-66
2022/07/17 11:28:35;;;;;;;2.03;1.02;;;;;;;18.30;59.96;101118.78;5092947;28;20059;-69